createdAt,value
2022-12-18T00:01:22.615Z,70.10
2022-12-18T00:03:51.031Z,141.90
2022-12-18T00:06:21.134Z,105.80
2022-12-18T00:08:48.310Z,82.80
2022-12-18T00:11:19.302Z,79.10
2022-12-18T00:13:46.992Z,85.90
2022-12-18T00:16:16.758Z,97.20
2022-12-18T00:18:44.142Z,77.50
2022-12-18T00:21:13.943Z,79.10
2022-12-18T00:23:43.563Z,84.00
2022-12-18T00:26:21.612Z,71.70
2022-12-18T00:28:50.777Z,68.90
2022-12-18T00:31:21.172Z,74.90
2022-12-18T00:33:50.003Z,143.10
2022-12-18T00:36:24.454Z,92.30
2022-12-18T00:38:54.642Z,157.00
2022-12-18T00:41:41.146Z,89.50
2022-12-18T00:44:10.650Z,56.20
2022-12-18T00:46:38.057Z,61.70
2022-12-18T00:49:05.953Z,67.20
2022-12-18T00:51:33.459Z,77.30
2022-12-18T00:54:00.688Z,85.90
2022-12-18T00:56:27.915Z,89.10
2022-12-18T00:58:55.435Z,68.80
2022-12-18T01:01:22.663Z,69.30
2022-12-18T01:03:49.961Z,65.70
2022-12-18T01:06:17.845Z,57.20
2022-12-18T01:08:45.568Z,76.80
2022-12-18T01:11:21.500Z,71.00
2022-12-18T01:13:49.237Z,76.80
2022-12-18T01:16:18.214Z,58.70
2022-12-18T01:18:45.770Z,72.70
2022-12-18T01:21:16.275Z,54.30
2022-12-18T01:23:43.416Z,59.90
2022-12-18T01:26:16.073Z,59.80
2022-12-18T01:28:45.196Z,68.20
2022-12-18T01:31:29.335Z,71.00
2022-12-18T01:33:57.698Z,76.70
2022-12-18T01:36:31.323Z,66.30
2022-12-18T01:39:01.852Z,59.50
2022-12-18T01:41:50.969Z,66.30
2022-12-18T01:44:59.181Z,69.70
2022-12-18T01:47:32.093Z,81.80
2022-12-18T01:50:02.776Z,66.60
2022-12-18T01:52:33.355Z,63.80
2022-12-18T01:55:02.914Z,60.00
2022-12-18T01:57:30.269Z,52.60
2022-12-18T02:00:02.663Z,54.20
2022-12-18T02:02:45.309Z,50.20
2022-12-18T02:05:17.654Z,55.20
2022-12-18T02:08:20.620Z,77.30
2022-12-18T02:10:54.937Z,65.80
2022-12-18T02:13:36.944Z,75.70
2022-12-18T02:16:26.789Z,76.40
2022-12-18T02:19:00.273Z,81.20
2022-12-18T02:21:59.292Z,74.00
2022-12-18T02:24:36.350Z,61.10
2022-12-18T02:27:08.850Z,93.30
2022-12-18T02:29:41.592Z,108.80
2022-12-18T02:32:15.823Z,113.00
2022-12-18T02:34:45.610Z,90.20
2022-12-18T02:37:18.854Z,72.50
2022-12-18T02:39:50.179Z,64.90
2022-12-18T02:42:18.788Z,59.10
2022-12-18T02:44:48.311Z,61.80
2022-12-18T02:47:20.614Z,56.60
2022-12-18T02:49:59.109Z,73.40
2022-12-18T02:52:51.807Z,65.90
2022-12-18T02:55:58.329Z,60.60
2022-12-18T02:58:41.839Z,64.60
2022-12-18T03:01:32.273Z,63.20
2022-12-18T03:04:05.709Z,51.50
2022-12-18T03:06:48.193Z,57.00
2022-12-18T03:09:35.570Z,58.30
2022-12-18T03:12:25.304Z,106.40
2022-12-18T03:15:04.225Z,88.90
2022-12-18T03:17:34.729Z,61.70
2022-12-18T03:20:11.889Z,55.20
2022-12-18T03:22:41.192Z,67.30
2022-12-18T03:25:12.079Z,64.10
2022-12-18T03:27:45.683Z,62.00
2022-12-18T03:30:15.265Z,81.70
2022-12-18T03:33:00.100Z,76.30
2022-12-18T03:35:32.369Z,81.90
2022-12-18T03:37:59.882Z,88.10
2022-12-18T03:41:06.125Z,89.20
2022-12-18T03:43:56.293Z,110.30
2022-12-18T03:46:51.141Z,86.00
2022-12-18T03:49:35.189Z,92.90
2022-12-18T03:52:10.457Z,71.70
2022-12-18T03:54:41.505Z,80.90
2022-12-18T03:57:33.842Z,79.70
2022-12-18T04:00:07.950Z,84.60
2022-12-18T04:02:56.782Z,103.60
2022-12-18T04:05:31.539Z,134.10
2022-12-18T04:07:59.124Z,118.70
2022-12-18T04:10:26.357Z,98.50
2022-12-18T04:12:58.187Z,108.80
2022-12-18T04:15:26.084Z,100.50
2022-12-18T04:17:53.461Z,147.50
2022-12-18T04:20:23.223Z,124.50
2022-12-18T04:22:50.477Z,107.10
2022-12-18T04:25:19.649Z,97.50
2022-12-18T04:28:07.078Z,601.80
2022-12-18T04:30:34.816Z,416.00
2022-12-18T04:33:02.069Z,323.00
2022-12-18T04:35:30.702Z,270.50
2022-12-18T04:37:57.856Z,183.10
2022-12-18T04:40:24.927Z,131.10
2022-12-18T04:42:52.423Z,103.00
2022-12-18T04:45:19.613Z,93.50
2022-12-18T04:47:46.710Z,73.90
2022-12-18T04:50:13.785Z,91.70
2022-12-18T04:52:41.063Z,70.00
2022-12-18T04:55:08.841Z,68.60
2022-12-18T04:57:35.978Z,58.80
2022-12-18T05:00:04.128Z,65.40
2022-12-18T05:02:31.320Z,67.30
2022-12-18T05:04:58.742Z,71.90
2022-12-18T05:07:25.963Z,82.40
2022-12-18T05:09:53.082Z,71.70
2022-12-18T05:12:20.166Z,73.90
2022-12-18T05:14:47.211Z,73.70
2022-12-18T05:17:14.361Z,71.80
2022-12-18T05:19:41.490Z,80.20
2022-12-18T05:22:08.764Z,71.20
2022-12-18T05:24:35.889Z,71.40
2022-12-18T05:27:03.168Z,68.10
2022-12-18T05:29:30.216Z,54.70
2022-12-18T05:31:57.357Z,54.30
2022-12-18T05:34:24.776Z,62.10
2022-12-18T05:36:51.924Z,72.40
2022-12-18T05:39:19.125Z,62.70
2022-12-18T05:41:46.301Z,64.50
2022-12-18T05:44:14.066Z,63.80
2022-12-18T05:46:42.382Z,78.90
2022-12-18T05:49:10.336Z,70.30
2022-12-18T05:51:37.731Z,85.60
2022-12-18T05:54:04.948Z,77.30
2022-12-18T05:56:32.839Z,85.90
2022-12-18T05:59:00.177Z,71.40
2022-12-18T06:01:28.084Z,57.00
2022-12-18T06:03:56.403Z,60.10
2022-12-18T06:06:26.076Z,59.40
2022-12-18T06:08:54.865Z,65.60
2022-12-18T06:11:27.464Z,67.10
2022-12-18T06:13:58.535Z,79.00
2022-12-18T06:16:27.591Z,79.60
2022-12-18T06:18:57.804Z,95.90
2022-12-18T06:21:24.826Z,99.00
2022-12-18T06:23:51.950Z,111.80
2022-12-18T06:26:23.340Z,106.20
2022-12-18T06:28:54.956Z,86.80
2022-12-18T06:31:22.104Z,96.40
2022-12-18T06:33:49.334Z,87.30
2022-12-18T06:36:17.765Z,81.30
2022-12-18T06:38:45.146Z,97.10
2022-12-18T06:41:15.012Z,87.90
2022-12-18T06:43:43.145Z,170.80
2022-12-18T06:46:11.179Z,139.20
2022-12-18T06:48:38.844Z,105.30
2022-12-18T06:51:06.443Z,103.90
2022-12-18T06:53:33.999Z,214.50
2022-12-18T06:56:09.426Z,138.70
2022-12-18T06:58:37.276Z,370.80
2022-12-18T07:01:06.948Z,230.30
2022-12-18T07:03:34.376Z,114.00
2022-12-18T07:06:01.573Z,100.40
2022-12-18T07:08:30.410Z,106.40
2022-12-18T07:10:58.050Z,155.50
2022-12-18T07:13:25.555Z,129.20
2022-12-18T07:15:52.732Z,123.70
2022-12-18T07:18:19.881Z,115.70
2022-12-18T07:20:47.084Z,126.00
2022-12-18T07:23:15.283Z,115.00
2022-12-18T07:25:42.536Z,116.40
2022-12-18T07:28:12.893Z,95.80
2022-12-18T07:30:44.286Z,135.30
2022-12-18T07:33:11.593Z,146.00
2022-12-18T07:35:38.691Z,204.20
2022-12-18T07:38:06.125Z,219.30
2022-12-18T07:40:33.222Z,139.60
2022-12-18T07:43:00.695Z,167.60
2022-12-18T07:45:27.786Z,175.70
2022-12-18T07:47:54.955Z,148.70
2022-12-18T07:50:22.557Z,114.00
2022-12-18T07:52:49.644Z,122.00
2022-12-18T07:55:16.793Z,130.80
2022-12-18T07:57:53.402Z,122.80
2022-12-18T08:00:23.939Z,413.10
2022-12-18T08:02:51.614Z,196.00
2022-12-18T08:05:19.500Z,183.70
2022-12-18T08:07:46.547Z,207.80
2022-12-18T08:10:13.596Z,237.20
2022-12-18T08:12:40.911Z,234.10
2022-12-18T08:15:09.716Z,136.70
2022-12-18T08:17:36.840Z,128.90
2022-12-18T08:20:04.706Z,140.30
2022-12-18T08:22:34.572Z,96.50
2022-12-18T08:25:02.545Z,113.90
2022-12-18T08:27:30.345Z,182.30
2022-12-18T08:29:58.453Z,158.10
2022-12-18T08:32:27.721Z,178.80
2022-12-18T08:34:54.933Z,169.90
2022-12-18T08:37:22.031Z,167.50
2022-12-18T08:39:49.133Z,128.40
2022-12-18T08:42:34.619Z,166.90
2022-12-18T08:45:02.098Z,184.10
2022-12-18T08:47:29.733Z,126.40
2022-12-18T08:49:56.933Z,214.10
2022-12-18T08:52:24.058Z,150.00
2022-12-18T08:54:52.002Z,164.30
2022-12-18T08:57:19.157Z,174.00
2022-12-18T08:59:46.456Z,141.50
2022-12-18T09:02:13.797Z,141.60
2022-12-18T09:04:41.154Z,151.40
2022-12-18T09:07:08.304Z,133.50
2022-12-18T09:09:35.468Z,132.40
2022-12-18T09:12:02.595Z,183.40
2022-12-18T09:14:29.694Z,143.30
2022-12-18T09:16:56.815Z,117.60
2022-12-18T09:19:24.046Z,136.40
2022-12-18T09:21:51.044Z,155.90
2022-12-18T09:24:18.140Z,159.60
2022-12-18T09:26:47.566Z,153.20
2022-12-18T09:29:16.757Z,149.60
2022-12-18T09:31:46.234Z,166.90
2022-12-18T09:34:13.351Z,161.60
2022-12-18T09:36:40.425Z,170.10
2022-12-18T09:39:08.732Z,226.80
2022-12-18T09:41:54.771Z,169.30
2022-12-18T09:44:26.602Z,153.80
2022-12-18T09:46:55.833Z,152.40
2022-12-18T09:49:27.176Z,145.70
2022-12-18T09:52:01.112Z,139.50
2022-12-18T09:54:36.965Z,160.40
2022-12-18T09:57:05.346Z,170.10
2022-12-18T09:59:37.491Z,137.50
2022-12-18T10:02:25.147Z,160.70
2022-12-18T10:05:07.380Z,172.00
2022-12-18T10:07:48.426Z,134.80
2022-12-18T10:10:24.026Z,128.30
2022-12-18T10:15:50.428Z,120.90
2022-12-18T10:21:08.793Z,158.70
2022-12-18T10:24:10.276Z,225.30
2022-12-18T10:26:37.525Z,141.50
2022-12-18T10:29:13.175Z,137.20
2022-12-18T10:34:15.783Z,137.60
2022-12-18T10:36:44.050Z,118.80
2022-12-18T10:39:27.308Z,164.10
2022-12-18T10:42:11.966Z,151.70
2022-12-18T10:44:39.166Z,242.40
2022-12-18T10:47:12.821Z,309.80
2022-12-18T10:49:49.390Z,169.50
2022-12-18T10:52:25.745Z,156.70
2022-12-18T10:55:03.761Z,115.80
2022-12-18T10:57:34.451Z,89.50
2022-12-18T11:00:39.714Z,96.30
2022-12-18T11:03:42.278Z,107.50
2022-12-18T11:06:12.442Z,115.80
2022-12-18T11:08:40.771Z,114.10
2022-12-18T11:11:20.477Z,113.60
2022-12-18T11:14:04.975Z,150.70
2022-12-18T11:17:03.231Z,101.00
2022-12-18T11:19:37.860Z,127.90
2022-12-18T11:22:39.565Z,134.40
2022-12-18T11:28:34.770Z,94.60
2022-12-18T11:31:17.634Z,103.40
2022-12-18T11:36:49.583Z,92.90
2022-12-18T11:39:33.189Z,104.40
2022-12-18T11:42:15.594Z,107.40
2022-12-18T11:44:46.811Z,98.70
2022-12-18T11:47:21.810Z,122.90
2022-12-18T11:49:53.044Z,112.80
2022-12-18T11:52:27.874Z,123.40
2022-12-18T11:55:01.424Z,173.60
2022-12-18T11:57:31.262Z,127.20
2022-12-18T12:00:10.675Z,104.40
2022-12-18T12:03:16.015Z,109.00
2022-12-18T12:06:01.655Z,114.80
2022-12-18T12:08:55.614Z,136.30
2022-12-18T12:11:39.349Z,111.40
2022-12-18T12:14:37.502Z,129.70
2022-12-18T12:17:16.684Z,136.30
2022-12-18T12:20:03.109Z,138.20
2022-12-18T12:22:53.225Z,122.30
2022-12-18T12:25:28.083Z,115.60
2022-12-18T12:28:29.444Z,92.60
2022-12-18T12:31:18.590Z,119.80
2022-12-18T12:33:53.305Z,130.70
2022-12-18T12:36:43.495Z,137.50
2022-12-18T12:39:18.888Z,117.50
2022-12-18T12:42:06.725Z,101.60
2022-12-18T12:44:43.424Z,105.20
2022-12-18T12:47:26.656Z,144.10
2022-12-18T12:49:55.491Z,173.80
2022-12-18T12:52:35.956Z,180.60
2022-12-18T12:55:10.311Z,131.70
2022-12-18T12:57:47.100Z,101.20
2022-12-18T13:00:18.245Z,83.80
2022-12-18T13:03:21.132Z,104.30
2022-12-18T13:05:55.969Z,118.90
2022-12-18T13:08:33.208Z,149.20
2022-12-18T13:11:21.241Z,163.40
2022-12-18T13:13:54.382Z,158.60
2022-12-18T13:16:24.220Z,109.20
2022-12-18T13:18:58.952Z,100.10
2022-12-18T13:21:28.427Z,109.90
2022-12-18T13:23:57.951Z,126.90
2022-12-18T13:26:29.060Z,123.20
2022-12-18T13:28:58.436Z,155.50
2022-12-18T13:31:41.016Z,168.40
2022-12-18T13:34:28.420Z,171.60
2022-12-18T13:37:18.236Z,146.40
2022-12-18T13:39:45.482Z,106.50
2022-12-18T13:42:33.034Z,120.40
2022-12-18T13:45:00.927Z,190.20
2022-12-18T13:47:35.694Z,210.80
2022-12-18T13:50:21.109Z,321.10
2022-12-18T13:52:53.636Z,325.70
2022-12-18T13:55:23.357Z,167.50
2022-12-18T13:57:50.522Z,159.20
2022-12-18T14:00:31.574Z,354.20
2022-12-18T14:02:59.841Z,235.10
2022-12-18T14:05:39.372Z,195.80
2022-12-18T14:08:17.474Z,131.90
2022-12-18T14:10:49.892Z,106.60
2022-12-18T14:13:37.307Z,433.80
2022-12-18T14:16:07.572Z,405.20
2022-12-18T14:18:49.272Z,318.30
2022-12-18T14:21:26.122Z,160.90
2022-12-18T14:24:15.538Z,135.60
2022-12-18T14:26:45.509Z,134.30
2022-12-18T14:29:28.018Z,155.80
2022-12-18T14:32:17.890Z,1037.90
2022-12-18T14:34:50.608Z,353.50
2022-12-18T14:37:23.193Z,226.30
2022-12-18T14:39:59.320Z,172.80
2022-12-18T14:42:29.390Z,414.30
2022-12-18T14:45:41.762Z,563.80
2022-12-18T14:48:19.050Z,858.40
2022-12-18T14:51:03.538Z,607.90
2022-12-18T14:53:36.483Z,379.40
2022-12-18T14:56:13.363Z,378.30
2022-12-18T14:58:40.617Z,321.30
2022-12-18T15:01:08.145Z,200.00
2022-12-18T15:03:35.440Z,120.70
2022-12-18T15:06:24.644Z,222.70
2022-12-18T15:08:51.880Z,278.80
2022-12-18T15:11:46.524Z,249.70
2022-12-18T15:14:25.162Z,170.40
2022-12-18T15:16:56.231Z,206.80
2022-12-18T15:19:33.445Z,233.70
2022-12-18T15:22:06.121Z,168.50
2022-12-18T15:24:35.040Z,290.70
2022-12-18T15:27:02.501Z,288.90
2022-12-18T15:29:29.676Z,235.30
2022-12-18T15:32:04.836Z,114.50
2022-12-18T15:34:32.934Z,287.20
2022-12-18T15:37:00.111Z,160.30
2022-12-18T15:39:27.366Z,229.60
2022-12-18T15:42:13.894Z,164.60
2022-12-18T15:44:41.352Z,146.70
2022-12-18T15:47:14.303Z,155.50
2022-12-18T15:49:41.874Z,202.90
2022-12-18T15:52:12.557Z,127.50
2022-12-18T15:54:58.780Z,158.50
2022-12-18T15:57:26.018Z,118.90
2022-12-18T15:59:56.357Z,122.70
2022-12-18T16:02:24.252Z,110.20
2022-12-18T16:04:53.349Z,141.30
2022-12-18T16:07:23.015Z,123.90
2022-12-18T16:09:53.000Z,184.40
2022-12-18T16:12:25.473Z,161.70
2022-12-18T16:14:52.806Z,120.00
2022-12-18T16:17:20.690Z,125.80
2022-12-18T16:19:48.046Z,128.40
2022-12-18T16:22:24.213Z,239.70
2022-12-18T16:24:53.581Z,145.60
2022-12-18T16:27:21.662Z,160.00
2022-12-18T16:29:49.686Z,113.90
2022-12-18T16:32:20.169Z,113.90
2022-12-18T16:34:48.159Z,154.00
2022-12-18T16:37:16.999Z,107.40
2022-12-18T16:39:45.098Z,184.90
2022-12-18T16:42:17.555Z,172.40
2022-12-18T16:44:45.931Z,114.30
2022-12-18T16:47:15.087Z,118.60
2022-12-18T16:49:45.377Z,81.90
2022-12-18T16:52:14.503Z,79.10
2022-12-18T16:54:41.848Z,129.10
2022-12-18T16:57:13.275Z,157.10
2022-12-18T16:59:40.689Z,109.60
2022-12-18T17:02:17.408Z,90.30
2022-12-18T17:04:47.603Z,89.20
2022-12-18T17:07:15.307Z,100.80
2022-12-18T17:09:43.110Z,80.80
2022-12-18T17:12:10.822Z,87.60
2022-12-18T17:14:38.227Z,101.90
2022-12-18T17:17:22.593Z,78.60
2022-12-18T17:19:51.357Z,118.50
2022-12-18T17:22:19.035Z,89.40
2022-12-18T17:24:47.631Z,88.50
2022-12-18T17:27:15.561Z,78.20
2022-12-18T17:29:47.363Z,89.10
2022-12-18T17:32:16.982Z,117.70
2022-12-18T17:34:44.618Z,164.50
2022-12-18T17:37:11.975Z,133.00
2022-12-18T17:39:39.558Z,133.30
2022-12-18T17:42:07.190Z,116.90
2022-12-18T17:44:36.042Z,107.40
2022-12-18T17:47:03.486Z,149.30
2022-12-18T17:49:31.412Z,123.80
2022-12-18T17:51:59.329Z,100.10
2022-12-18T17:54:26.688Z,154.60
2022-12-18T17:56:53.861Z,161.50
2022-12-18T17:59:21.098Z,160.10
2022-12-18T18:01:48.660Z,185.10
2022-12-18T18:04:16.050Z,88.20
2022-12-18T18:06:43.206Z,67.60
2022-12-18T18:09:16.371Z,75.60
2022-12-18T18:12:06.953Z,109.30
2022-12-18T18:14:34.202Z,150.20
2022-12-18T18:17:04.738Z,115.20
2022-12-18T18:19:33.646Z,116.90
2022-12-18T18:22:01.632Z,118.10
2022-12-18T18:24:30.383Z,137.10
2022-12-18T18:26:59.692Z,172.30
2022-12-18T18:29:30.567Z,109.30
2022-12-18T18:31:58.591Z,176.30
2022-12-18T18:34:29.275Z,91.40
2022-12-18T18:36:56.474Z,130.00
2022-12-18T18:39:23.857Z,118.30
2022-12-18T18:41:51.037Z,92.00
2022-12-18T18:44:22.823Z,104.80
2022-12-18T18:46:57.655Z,117.90
2022-12-18T18:49:27.851Z,114.90
2022-12-18T18:51:57.161Z,192.00
2022-12-18T18:54:25.613Z,176.40
2022-12-18T18:59:39.921Z,159.00
2022-12-18T19:02:09.545Z,138.70
2022-12-18T19:04:38.478Z,92.30
2022-12-18T19:07:13.048Z,175.40
2022-12-18T19:09:42.173Z,187.70
2022-12-18T19:12:28.699Z,174.30
2022-12-18T19:14:56.158Z,132.00
2022-12-18T19:17:29.418Z,107.20
2022-12-18T19:19:57.780Z,158.60
2022-12-18T19:22:24.930Z,117.20
2022-12-18T19:24:52.004Z,159.80
2022-12-18T19:27:19.154Z,119.90
2022-12-18T19:29:46.256Z,156.50
2022-12-18T19:32:13.389Z,172.10
2022-12-18T19:34:40.660Z,128.80
2022-12-18T19:37:08.144Z,147.30
2022-12-18T19:39:35.447Z,123.60
2022-12-18T19:42:02.468Z,130.70
2022-12-18T19:44:29.619Z,271.50
2022-12-18T19:46:56.717Z,548.80
2022-12-18T19:49:23.792Z,307.60
2022-12-18T19:51:51.765Z,626.30
2022-12-18T19:54:18.955Z,264.60
2022-12-18T19:56:46.834Z,319.50
2022-12-18T19:59:13.958Z,168.50
2022-12-18T20:01:41.637Z,161.50
2022-12-18T20:04:09.251Z,223.80
2022-12-18T20:06:50.003Z,209.60
2022-12-18T20:09:17.865Z,156.60
2022-12-18T20:11:46.686Z,156.00
2022-12-18T20:14:19.597Z,153.70
2022-12-18T20:16:52.039Z,192.80
2022-12-18T20:19:20.172Z,154.40
2022-12-18T20:21:48.032Z,335.30
2022-12-18T20:24:15.158Z,252.00
2022-12-18T20:26:42.340Z,199.20
2022-12-18T20:29:09.561Z,163.80
2022-12-18T20:31:37.578Z,161.40
2022-12-18T20:34:04.952Z,164.10
2022-12-18T20:36:35.146Z,161.70
2022-12-18T20:39:05.351Z,171.10
2022-12-18T20:41:38.044Z,186.20
2022-12-18T20:44:23.020Z,160.10
2022-12-18T20:46:53.562Z,182.40
2022-12-18T20:49:20.662Z,136.50
2022-12-18T20:51:51.523Z,121.80
2022-12-18T20:54:20.835Z,136.20
2022-12-18T20:56:47.949Z,113.20
2022-12-18T20:59:15.210Z,123.00
2022-12-18T21:01:45.203Z,107.40
2022-12-18T21:04:18.408Z,136.40
2022-12-18T21:06:52.909Z,115.90
2022-12-18T21:09:23.490Z,159.50
2022-12-18T21:12:10.884Z,114.90
2022-12-18T21:14:41.857Z,106.60
2022-12-18T21:17:09.323Z,131.50
2022-12-18T21:19:36.568Z,102.90
2022-12-18T21:22:03.742Z,73.00
2022-12-18T21:24:32.503Z,99.90
2022-12-18T21:27:00.247Z,118.70
2022-12-18T21:29:27.857Z,108.80
2022-12-18T21:31:55.215Z,99.00
2022-12-18T21:34:28.020Z,110.70
2022-12-18T21:36:57.379Z,108.70
2022-12-18T21:39:25.269Z,95.00
2022-12-18T21:42:11.776Z,97.70
2022-12-18T21:44:42.073Z,67.60
2022-12-18T21:47:21.734Z,85.00
2022-12-18T21:49:50.404Z,113.70
2022-12-18T21:52:17.575Z,104.80
2022-12-18T21:54:44.573Z,486.10
2022-12-18T21:57:13.575Z,194.40
2022-12-18T21:59:42.789Z,212.30
2022-12-18T22:02:21.469Z,141.00
2022-12-18T22:04:48.867Z,90.40
2022-12-18T22:07:16.737Z,86.60
2022-12-18T22:09:44.259Z,109.30
2022-12-18T22:12:34.001Z,120.80
2022-12-18T22:15:01.651Z,126.80
2022-12-18T22:17:28.791Z,98.60
2022-12-18T22:19:56.450Z,147.70
2022-12-18T22:22:23.660Z,118.00
2022-12-18T22:24:50.805Z,281.20
2022-12-18T22:27:17.926Z,166.50
2022-12-18T22:30:03.820Z,148.40
2022-12-18T22:32:35.216Z,137.20
2022-12-18T22:35:08.344Z,129.00
2022-12-18T22:37:37.004Z,191.00
2022-12-18T22:40:07.255Z,282.60
2022-12-18T22:42:34.623Z,151.50
2022-12-18T22:45:01.763Z,127.60
2022-12-18T22:47:30.436Z,153.00
2022-12-18T22:49:58.390Z,119.00
2022-12-18T22:52:26.045Z,120.20
2022-12-18T22:54:54.360Z,244.60
2022-12-18T22:57:23.030Z,135.10
2022-12-18T22:59:51.490Z,165.20
2022-12-18T23:02:19.662Z,127.40
2022-12-18T23:04:47.919Z,133.90
2022-12-18T23:07:16.472Z,119.10
2022-12-18T23:09:45.508Z,162.30
2022-12-18T23:12:15.867Z,104.10
2022-12-18T23:14:43.352Z,109.30
2022-12-18T23:17:10.578Z,139.00
2022-12-18T23:19:37.805Z,194.50
2022-12-18T23:22:10.051Z,109.00
2022-12-18T23:24:38.803Z,133.40
2022-12-18T23:27:06.938Z,112.30
2022-12-18T23:29:39.492Z,92.50
2022-12-18T23:32:07.017Z,80.70
2022-12-18T23:34:34.149Z,67.50
2022-12-18T23:37:01.265Z,74.50
2022-12-18T23:39:30.076Z,72.40
2022-12-18T23:41:58.879Z,106.00
2022-12-18T23:44:26.263Z,117.00
2022-12-18T23:46:53.604Z,120.30
2022-12-18T23:49:20.892Z,108.30
2022-12-18T23:51:48.095Z,99.20
2022-12-18T23:54:15.091Z,80.30
2022-12-18T23:56:42.266Z,105.50
2022-12-18T23:59:09.601Z,97.30
